Time;durP1;ratioP1;P1;durP2;ratioP2;P2;SDS_P1;SDS_P2;PMS_P1;PMS_P2;Temp;Humidity;BMP_temperature;BMP_pressure;BME280_temperature;BME280_humidity;BME280_pressure;Samples;Min_cycle;Max_cycle;Signal;HPM_P1;HPM_P2
2022/02/07 00:02:02;;;;;;;17.45;12.10;;;;;;;;;;143729;570;47018;-60
2022/02/07 00:04:34;;;;;;;18.35;12.80;;;;;;;;;;143734;608;45022;-60
2022/02/07 00:07:01;;;;;;;17.95;11.82;;;;;;;;;;143730;587;46021;-60
2022/02/07 00:09:29;;;;;;;16.42;11.40;;;;;;;;;;143727;607;46022;-60
2022/02/07 00:11:56;;;;;;;19.02;14.13;;;;;;;;;;143730;567;46018;-59
2022/02/07 00:14:23;;;;;;;21.48;13.90;;;;;;;;;;143732;583;46012;-60
2022/02/07 00:16:50;;;;;;;20.25;13.48;;;;;;;;;;143728;619;46020;-60
2022/02/07 00:19:22;;;;;;;19.50;14.52;;;;;;;;;;143726;719;46022;-61
2022/02/07 00:21:50;;;;;;;17.05;12.32;;;;;;;;;;143727;595;47018;-61
2022/02/07 00:24:17;;;;;;;21.62;15.50;;;;;;;;;;143733;577;46022;-61
2022/02/07 00:26:44;;;;;;;17.02;12.07;;;;;;;;;;143732;630;46018;-61
2022/02/07 00:29:11;;;;;;;20.45;14.65;;;;;;;;;;143727;565;46023;-60
2022/02/07 00:31:38;;;;;;;16.52;11.80;;;;;;;;;;143731;587;46018;-61
2022/02/07 00:34:05;;;;;;;16.87;12.65;;;;;;;;;;143735;586;46012;-60
2022/02/07 00:36:32;;;;;;;17.50;13.60;;;;;;;;;;143729;585;47018;-60
2022/02/07 00:39:07;;;;;;;19.40;12.20;;;;;;;;;;143729;616;46022;-60
2022/02/07 00:41:42;;;;;;;22.65;14.60;;;;;;;;;;143731;603;46010;-60
2022/02/07 00:44:14;;;;;;;19.87;12.45;;;;;;;;;;143732;594;46023;-60
2022/02/07 00:46:49;;;;;;;18.45;13.23;;;;;;;;;;143729;564;46020;-61
2022/02/07 00:49:16;;;;;;;20.42;14.10;;;;;;;;;;143729;648;46022;-61
2022/02/07 00:51:43;;;;;;;20.67;14.77;;;;;;;;;;143728;643;46010;-60
2022/02/07 00:54:10;;;;;;;15.45;10.77;;;;;;;;;;143733;612;46022;-60
2022/02/07 00:56:37;;;;;;;23.00;15.25;;;;;;;;;;143730;603;46020;-61
2022/02/07 00:59:04;;;;;;;23.35;15.25;;;;;;;;;;143727;587;46023;-61
2022/02/07 01:01:31;;;;;;;20.02;15.65;;;;;;;;;;143730;569;46010;-61
2022/02/07 01:03:59;;;;;;;17.55;13.62;;;;;;;;;;143732;570;46022;-60
2022/02/07 01:06:26;;;;;;;19.83;13.40;;;;;;;;;;143729;605;47018;-60
2022/02/07 01:09:08;;;;;;;17.83;13.05;;;;;;;;;;143727;595;46022;-61
2022/02/07 01:12:02;;;;;;;23.30;15.73;;;;;;;;;;143732;622;46010;-61
2022/02/07 01:14:50;;;;;;;18.40;14.40;;;;;;;;;;143731;582;46012;-60
2022/02/07 01:23:21;;;;;;;27.62;18.33;;;;;;;;;;143728;575;46904;-60
2022/02/07 01:56:20;;;;;;;20.33;12.73;;;;;;;;;;143730;603;46018;-60
2022/02/07 01:58:47;;;;;;;32.50;18.15;;;;;;;;;;143733;591;46023;-61
2022/02/07 02:01:14;;;;;;;23.33;15.52;;;;;;;;;;143729;569;46020;-62
2022/02/07 02:03:41;;;;;;;19.80;14.95;;;;;;;;;;143728;605;46022;-62
2022/02/07 02:06:10;;;;;;;18.35;13.35;;;;;;;;;;143731;587;46010;-61
2022/02/07 02:08:38;;;;;;;23.55;12.70;;;;;;;;;;143734;623;45022;-60
2022/02/07 02:11:05;;;;;;;17.20;13.40;;;;;;;;;;143729;611;46020;-61
2022/02/07 02:13:56;;;;;;;21.30;15.32;;;;;;;;;;143727;579;46023;-61
2022/02/07 02:36:24;;;;;;;23.45;17.30;;;;;;;;;;143731;604;45921;-60
2022/02/07 02:45:24;;;;;;;19.87;14.10;;;;;;;;;;143729;621;46911;-61
2022/02/07 02:47:18;;;;;;;22.95;15.43;;;;;;;;;;143730;576;46010;-61
2022/02/07 02:49:49;;;;;;;21.55;13.43;;;;;;;;;;143729;679;46011;-62
2022/02/07 02:52:16;;;;;;;18.67;13.20;;;;;;;;;;143733;570;46022;-63
2022/02/07 02:54:43;;;;;;;16.95;12.55;;;;;;;;;;143729;577;46020;-61
2022/02/07 02:57:10;;;;;;;26.77;16.37;;;;;;;;;;143727;575;46023;-61
2022/02/07 02:59:37;;;;;;;32.00;18.02;;;;;;;;;;143728;566;46018;-63
2022/02/07 03:02:04;;;;;;;29.37;18.75;;;;;;;;;;143733;596;46022;-62
2022/02/07 03:04:31;;;;;;;29.23;18.80;;;;;;;;;;143729;582;46020;-61
2022/02/07 03:06:58;;;;;;;24.87;17.62;;;;;;;;;;143726;639;46022;-62
2022/02/07 03:09:25;;;;;;;28.55;16.37;;;;;;;;;;143728;688;46010;-63
2022/02/07 03:11:52;;;;;;;27.55;19.05;;;;;;;;;;143730;614;46023;-62
2022/02/07 03:14:23;;;;;;;26.23;16.55;;;;;;;;;;143729;574;46021;-62
2022/02/07 03:16:50;;;;;;;25.88;18.52;;;;;;;;;;143729;569;46022;-62
2022/02/07 03:19:19;;;;;;;24.92;17.10;;;;;;;;;;143731;595;46010;-62
2022/02/07 03:21:46;;;;;;;27.17;17.60;;;;;;;;;;143732;582;46022;-62
2022/02/07 03:24:14;;;;;;;26.85;17.08;;;;;;;;;;143729;588;46018;-63
2022/02/07 03:26:43;;;;;;;29.05;18.92;;;;;;;;;;143728;608;46023;-62
2022/02/07 03:29:12;;;;;;;28.40;16.98;;;;;;;;;;143728;567;46018;-62
2022/02/07 03:31:39;;;;;;;27.70;18.50;;;;;;;;;;143731;634;46012;-62
2022/02/07 03:34:06;;;;;;;25.85;16.23;;;;;;;;;;143729;578;46020;-62
2022/02/07 03:36:34;;;;;;;18.33;12.93;;;;;;;;;;143728;570;46022;-63
2022/02/07 03:39:01;;;;;;;31.75;17.77;;;;;;;;;;143728;649;46018;-62
2022/02/07 03:41:28;;;;;;;27.42;18.65;;;;;;;;;;143732;575;46030;-62
2022/02/07 03:43:55;;;;;;;25.58;16.02;;;;;;;;;;143730;565;46018;-62
2022/02/07 03:46:22;;;;;;;25.52;16.98;;;;;;;;;;143728;600;46022;-62
2022/02/07 03:48:49;;;;;;;26.37;18.90;;;;;;;;;;143727;599;46019;-62
2022/02/07 03:51:16;;;;;;;22.42;17.52;;;;;;;;;;143731;585;46012;-62
2022/02/07 03:53:43;;;;;;;24.05;14.30;;;;;;;;;;143731;606;46018;-61
2022/02/07 03:56:10;;;;;;;20.33;13.80;;;;;;;;;;143728;574;46011;-63
2022/02/07 03:58:38;;;;;;;23.52;17.02;;;;;;;;;;143730;617;46010;-62
2022/02/07 04:01:04;;;;;;;24.23;13.85;;;;;;;;;;143732;680;46012;-62
2022/02/07 04:03:33;;;;;;;16.83;12.40;;;;;;;;;;143730;680;46019;-62
2022/02/07 04:06:04;;;;;;;19.27;13.38;;;;;;;;;;143728;566;46022;-62
2022/02/07 04:08:34;;;;;;;22.98;16.08;;;;;;;;;;143727;662;46018;-63
2022/02/07 04:11:19;;;;;;;18.83;13.05;;;;;;;;;;143730;626;46022;-62
2022/02/07 04:13:48;;;;;;;21.95;14.90;;;;;;;;;;143727;565;46914;-62
2022/02/07 04:16:15;;;;;;;26.00;16.35;;;;;;;;;;143726;589;46022;-63
2022/02/07 04:21:31;;;;;;;28.23;16.07;;;;;;;;;;143730;570;46022;-61
2022/02/07 04:23:59;;;;;;;28.00;15.77;;;;;;;;;;143728;604;46018;-62
2022/02/07 04:26:26;;;;;;;24.33;15.55;;;;;;;;;;143726;575;46022;-63
2022/02/07 04:28:53;;;;;;;22.48;16.58;;;;;;;;;;143729;589;46016;-62
2022/02/07 04:31:20;;;;;;;22.87;16.20;;;;;;;;;;143730;664;46022;-63
2022/02/07 04:33:47;;;;;;;19.98;14.82;;;;;;;;;;143729;624;46018;-61
2022/02/07 04:36:14;;;;;;;26.65;14.77;;;;;;;;;;143725;577;46023;-62
2022/02/07 04:38:42;;;;;;;21.35;14.98;;;;;;;;;;143726;596;46018;-62
2022/02/07 04:41:10;;;;;;;23.50;15.05;;;;;;;;;;143731;574;46012;-62
2022/02/07 04:43:44;;;;;;;29.75;18.98;;;;;;;;;;143728;600;46018;-62
2022/02/07 04:49:24;;;;;;;25.73;17.00;;;;;;;;;;143726;564;47019;-63
2022/02/07 04:52:06;;;;;;;31.65;17.08;;;;;;;;;;143729;618;46012;-62
2022/02/07 04:54:49;;;;;;;29.80;19.02;;;;;;;;;;143726;613;46020;-62
2022/02/07 04:57:44;;;;;;;19.70;12.05;;;;;;;;;;143725;593;46023;-63
2022/02/07 05:00:31;;;;;;;29.63;18.50;;;;;;;;;;143727;620;46018;-63
2022/02/07 05:03:06;;;;;;;29.75;16.20;;;;;;;;;;143730;601;46012;-63
2022/02/07 05:14:03;;;;;;;25.83;16.75;;;;;;;;;;143729;595;46012;-63
2022/02/07 05:16:31;;;;;;;21.08;15.20;;;;;;;;;;143727;657;47018;-62
2022/02/07 05:19:02;;;;;;;24.98;16.70;;;;;;;;;;143727;575;46023;-62
2022/02/07 05:21:29;;;;;;;21.12;14.90;;;;;;;;;;143726;608;46018;-62
2022/02/07 05:23:57;;;;;;;25.30;16.15;;;;;;;;;;143731;624;46012;-63
2022/02/07 05:26:24;;;;;;;24.12;15.73;;;;;;;;;;143729;613;46019;-62
2022/02/07 05:28:52;;;;;;;24.35;14.32;;;;;;;;;;143727;566;46022;-63
2022/02/07 05:31:21;;;;;;;22.77;15.93;;;;;;;;;;143726;580;46016;-62
2022/02/07 05:33:48;;;;;;;18.98;13.95;;;;;;;;;;143729;585;46013;-62
2022/02/07 05:36:15;;;;;;;27.70;19.58;;;;;;;;;;143728;595;46018;-63
2022/02/07 05:38:46;;;;;;;31.05;17.92;;;;;;;;;;143726;557;46022;-62
2022/02/07 05:41:15;;;;;;;24.85;15.70;;;;;;;;;;143729;589;46011;-62
2022/02/07 05:43:45;;;;;;;26.92;17.17;;;;;;;;;;143730;593;46012;-63
2022/02/07 05:46:12;;;;;;;27.70;16.55;;;;;;;;;;143729;651;46018;-62
2022/02/07 05:48:39;;;;;;;24.83;16.20;;;;;;;;;;143726;571;46023;-62
2022/02/07 05:51:06;;;;;;;24.48;15.18;;;;;;;;;;143727;633;46016;-63
2022/02/07 05:53:33;;;;;;;21.87;14.77;;;;;;;;;;143731;677;46012;-63
2022/02/07 05:56:00;;;;;;;18.62;13.43;;;;;;;;;;143727;637;47018;-62
2022/02/07 05:58:28;;;;;;;20.62;14.02;;;;;;;;;;143727;583;46022;-63
2022/02/07 06:00:55;;;;;;;16.27;13.48;;;;;;;;;;143727;649;46016;-62
2022/02/07 06:03:22;;;;;;;20.90;14.13;;;;;;;;;;143729;600;46013;-63
2022/02/07 06:05:52;;;;;;;22.95;15.65;;;;;;;;;;143728;579;46018;-63
2022/02/07 06:08:19;;;;;;;29.08;19.83;;;;;;;;;;143726;574;46022;-62
2022/02/07 06:10:47;;;;;;;26.90;18.90;;;;;;;;;;143727;651;46024;-62
2022/02/07 06:13:17;;;;;;;23.50;16.73;;;;;;;;;;143731;585;46012;-63
2022/02/07 06:15:45;;;;;;;27.98;19.10;;;;;;;;;;143728;647;46018;-62
2022/02/07 06:18:15;;;;;;;29.77;16.62;;;;;;;;;;143726;641;46022;-63
2022/02/07 06:20:42;;;;;;;25.85;19.15;;;;;;;;;;143727;571;46018;-62
2022/02/07 06:23:09;;;;;;;25.12;17.83;;;;;;;;;;143731;665;46012;-63
2022/02/07 06:25:36;;;;;;;31.95;20.92;;;;;;;;;;143728;591;46019;-62
2022/02/07 06:28:04;;;;;;;32.65;22.80;;;;;;;;;;143726;576;46022;-63
2022/02/07 06:30:31;;;;;;;28.05;19.87;;;;;;;;;;143727;597;46016;-62
2022/02/07 06:32:58;;;;;;;26.12;16.83;;;;;;;;;;143731;667;46022;-62
2022/02/07 06:35:25;;;;;;;35.28;21.23;;;;;;;;;;143727;650;46018;-62
2022/02/07 06:37:52;;;;;;;26.20;18.77;;;;;;;;;;143726;570;46022;-61
2022/02/07 06:40:20;;;;;;;32.65;20.58;;;;;;;;;;143726;607;46018;-62
2022/02/07 06:42:47;;;;;;;36.08;18.62;;;;;;;;;;143730;627;46012;-63
2022/02/07 06:45:14;;;;;;;32.83;22.02;;;;;;;;;;143728;597;46020;-63
2022/02/07 06:47:41;;;;;;;41.40;28.17;;;;;;;;;;143726;571;46023;-61
2022/02/07 06:50:08;;;;;;;31.20;24.00;;;;;;;;;;143728;581;46016;-62
2022/02/07 06:52:35;;;;;;;58.15;40.55;;;;;;;;;;143729;648;46012;-60
2022/02/07 06:55:02;;;;;;;67.30;48.90;;;;;;;;;;143728;621;46019;-61
2022/02/07 06:57:29;;;;;;;75.78;55.00;;;;;;;;;;143726;574;46023;-61
2022/02/07 06:59:56;;;;;;;87.22;64.18;;;;;;;;;;143727;628;46018;-62
2022/02/07 07:02:27;;;;;;;84.80;61.35;;;;;;;;;;143729;619;46013;-62
2022/02/07 07:04:56;;;;;;;74.90;56.42;;;;;;;;;;143729;574;46018;-62
2022/02/07 07:07:24;;;;;;;60.53;40.67;;;;;;;;;;143728;616;46010;-62
2022/02/07 07:09:51;;;;;;;60.92;45.03;;;;;;;;;;143726;583;46019;-62
2022/02/07 07:12:19;;;;;;;56.55;39.58;;;;;;;;;;143730;611;46022;-63
2022/02/07 07:14:50;;;;;;;54.10;38.47;;;;;;;;;;143727;659;46020;-62
2022/02/07 07:17:17;;;;;;;56.83;36.97;;;;;;;;;;143726;602;46023;-63
2022/02/07 07:19:44;;;;;;;36.88;24.40;;;;;;;;;;143728;611;46016;-62
2022/02/07 07:22:11;;;;;;;24.77;15.23;;;;;;;;;;143730;622;46022;-62
2022/02/07 07:24:40;;;;;;;26.27;16.20;;;;;;;;;;143726;593;47019;-63
2022/02/07 07:27:07;;;;;;;20.70;14.57;;;;;;;;;;143727;653;46022;-63
2022/02/07 07:29:38;;;;;;;25.77;16.37;;;;;;;;;;143729;587;46010;-62
2022/02/07 07:32:07;;;;;;;25.98;16.73;;;;;;;;;;143728;611;46022;-62
2022/02/07 07:34:34;;;;;;;26.33;15.68;;;;;;;;;;143727;617;47018;-62
2022/02/07 07:37:01;;;;;;;25.08;16.62;;;;;;;;;;143727;587;46022;-62
2022/02/07 07:39:28;;;;;;;41.65;23.55;;;;;;;;;;143727;569;46017;-62
2022/02/07 07:41:57;;;;;;;42.58;25.65;;;;;;;;;;143731;626;46012;-63
2022/02/07 07:44:29;;;;;;;47.90;26.87;;;;;;;;;;143725;587;47020;-63
2022/02/07 07:47:00;;;;;;;41.50;21.55;;;;;;;;;;143726;572;46022;-63
2022/02/07 07:49:39;;;;;;;38.33;21.48;;;;;;;;;;143725;581;46018;-62
2022/02/07 07:52:12;;;;;;;30.70;18.42;;;;;;;;;;143729;589;46022;-62
2022/02/07 07:54:52;;;;;;;24.67;13.98;;;;;;;;;;143728;593;46019;-61
2022/02/07 08:02:52;;;;;;;30.33;15.82;;;;;;;;;;143728;619;46023;-62
2022/02/07 08:05:26;;;;;;;23.73;15.20;;;;;;;;;;143727;650;46020;-62
2022/02/07 08:07:57;;;;;;;24.80;15.60;;;;;;;;;;143726;606;46022;-63
2022/02/07 08:10:42;;;;;;;23.42;13.82;;;;;;;;;;143729;629;46011;-62
2022/02/07 08:13:15;;;;;;;;;;;;;;;;;;143734;980;46022;-61
2022/02/07 08:15:42;;;;;;;21.20;13.27;;;;;;;;;;143731;593;46018;-61
2022/02/07 08:18:09;;;;;;;18.48;10.90;;;;;;;;;;143727;721;46010;-62
2022/02/07 08:20:36;;;;;;;24.27;13.13;;;;;;;;;;143728;612;46016;-62
2022/02/07 08:23:05;;;;;;;24.90;13.07;;;;;;;;;;143731;662;46022;-62
2022/02/07 08:25:33;;;;;;;21.45;14.10;;;;;;;;;;143727;582;46020;-62
2022/02/07 08:28:00;;;;;;;19.87;12.55;;;;;;;;;;143726;768;46022;-61
2022/02/07 08:30:27;;;;;;;29.25;14.10;;;;;;;;;;143726;612;46018;-61
2022/02/07 08:32:56;;;;;;;21.27;13.85;;;;;;;;;;143727;613;46022;-61
2022/02/07 08:35:24;;;;;;;18.23;13.25;;;;;;;;;;143729;565;46018;-60
2022/02/07 08:37:51;;;;;;;26.42;15.35;;;;;;;;;;143726;653;46022;-61
2022/02/07 08:40:19;;;;;;;27.95;15.80;;;;;;;;;;143726;624;46019;-61
2022/02/07 08:42:46;;;;;;;29.90;14.57;;;;;;;;;;143730;565;46022;-61
2022/02/07 08:45:14;;;;;;;20.25;14.00;;;;;;;;;;143727;564;46018;-61
2022/02/07 08:47:42;;;;;;;25.95;12.50;;;;;;;;;;143727;617;46010;-61
2022/02/07 08:50:10;;;;;;;23.30;12.52;;;;;;;;;;143726;637;47012;-61
2022/02/07 08:52:44;;;;;;;18.80;11.68;;;;;;;;;;143729;573;46012;-61
2022/02/07 08:55:15;;;;;;;19.23;10.75;;;;;;;;;;143729;564;46018;-61
2022/02/07 08:57:45;;;;;;;18.40;11.10;;;;;;;;;;143726;601;46010;-61
2022/02/07 09:00:22;;;;;;;17.70;9.98;;;;;;;;;;143727;595;46016;-61
2022/02/07 09:03:13;;;;;;;16.90;10.73;;;;;;;;;;143728;580;46013;-61
2022/02/07 09:05:49;;;;;;;22.30;11.23;;;;;;;;;;143726;564;46018;-61
2022/02/07 09:10:53;;;;;;;22.00;9.75;;;;;;;;;;143729;587;46010;-61
2022/02/07 09:13:20;;;;;;;19.48;10.52;;;;;;;;;;143728;621;46012;-61
2022/02/07 09:16:01;;;;;;;18.87;9.13;;;;;;;;;;143727;571;47018;-61
2022/02/07 09:18:28;;;;;;;12.82;8.43;;;;;;;;;;143728;638;46010;-61
2022/02/07 09:20:57;;;;;;;15.88;8.10;;;;;;;;;;143727;614;46016;-61
2022/02/07 09:23:24;;;;;;;21.75;8.95;;;;;;;;;;143728;566;46027;-61
2022/02/07 09:25:51;;;;;;;16.15;8.20;;;;;;;;;;143729;589;46018;-60
2022/02/07 09:28:19;;;;;;;9.43;6.00;;;;;;;;;;143725;592;46022;-60
2022/02/07 09:30:47;;;;;;;17.48;7.95;;;;;;;;;;143727;613;46017;-60
2022/02/07 09:33:13;;;;;;;14.80;6.90;;;;;;;;;;143729;595;46012;-60
2022/02/07 09:35:42;;;;;;;12.43;6.93;;;;;;;;;;143728;564;46018;-60
2022/02/07 09:38:10;;;;;;;12.55;7.50;;;;;;;;;;143727;613;46023;-60
2022/02/07 09:40:38;;;;;;;14.57;7.50;;;;;;;;;;143728;570;46016;-60
2022/02/07 09:43:05;;;;;;;16.60;7.05;;;;;;;;;;143729;582;46022;-60
2022/02/07 09:45:36;;;;;;;12.60;5.90;;;;;;;;;;143728;571;46019;-61
2022/02/07 09:48:06;;;;;;;13.68;6.70;;;;;;;;;;143726;582;46023;-60
2022/02/07 09:50:34;;;;;;;12.77;6.20;;;;;;;;;;143728;612;46016;-60
2022/02/07 09:53:01;;;;;;;12.30;5.37;;;;;;;;;;143729;574;46013;-61
2022/02/07 09:55:28;;;;;;;10.25;5.80;;;;;;;;;;143723;608;47021;-61
2022/02/07 09:57:55;;;;;;;15.75;6.15;;;;;;;;;;143725;610;46022;-62
2022/02/07 10:00:30;;;;;;;11.95;5.53;;;;;;;;;;143729;615;46010;-60
2022/02/07 10:03:16;;;;;;;13.93;5.32;;;;;;;;;;143730;634;46023;-60
2022/02/07 10:05:55;;;;;;;33.35;19.45;;;;;;;;;;143728;660;46018;-61
2022/02/07 10:08:50;;;;;;;17.90;8.88;;;;;;;;;;143726;613;46022;-60
2022/02/07 10:11:39;;;;;;;25.10;14.82;;;;;;;;;;143725;569;46018;-62
2022/02/07 10:14:12;;;;;;;17.25;7.20;;;;;;;;;;143729;586;47010;-63
2022/02/07 10:17:04;;;;;;;18.33;8.57;;;;;;;;;;143729;632;46019;-63
2022/02/07 10:19:59;;;;;;;15.25;7.45;;;;;;;;;;143728;599;46010;-61
2022/02/07 10:34:38;;;;;;;19.27;5.50;;;;;;;;;;143728;679;46018;-61
2022/02/07 10:40:43;;;;;;;9.68;5.18;;;;;;;;;;143728;636;46018;-60
2022/02/07 10:43:31;;;;;;;10.10;4.37;;;;;;;;;;143727;637;46028;-60
2022/02/07 10:46:12;;;;;;;7.55;4.35;;;;;;;;;;143728;592;46017;-60
2022/02/07 10:48:54;;;;;;;11.10;4.50;;;;;;;;;;143730;590;46022;-59
2022/02/07 10:51:27;;;;;;;11.60;4.47;;;;;;;;;;143730;606;46018;-59
2022/02/07 10:54:05;;;;;;;15.48;5.57;;;;;;;;;;143726;580;46010;-59
2022/02/07 10:56:37;;;;;;;13.30;4.80;;;;;;;;;;143728;626;46016;-61
2022/02/07 10:59:08;;;;;;;22.67;12.68;;;;;;;;;;143731;577;46022;-60
2022/02/07 11:04:45;;;;;;;8.45;5.22;;;;;;;;;;143728;616;46010;-59
2022/02/07 11:07:14;;;;;;;15.93;7.80;;;;;;;;;;143727;620;46018;-61
2022/02/07 11:09:57;;;;;;;11.85;4.85;;;;;;;;;;143733;630;46012;-61
2022/02/07 11:27:56;;;;;;;11.93;4.10;;;;;;;;;;143728;592;46022;-62
2022/02/07 11:30:47;;;;;;;6.50;4.07;;;;;;;;;;143727;565;46018;-61
2022/02/07 11:34:04;;;;;;;10.88;5.10;;;;;;;;;;143731;580;46016;-61
2022/02/07 11:36:36;;;;;;;13.80;4.65;;;;;;;;;;143729;579;46018;-62
2022/02/07 11:39:17;;;;;;;8.65;4.85;;;;;;;;;;143727;588;46023;-61
2022/02/07 11:42:13;;;;;;;8.80;3.95;;;;;;;;;;143729;678;46016;-61
2022/02/07 11:45:18;;;;;;;7.85;4.47;;;;;;;;;;143731;582;46014;-61
2022/02/07 11:47:47;;;;;;;10.38;4.32;;;;;;;;;;143728;629;46021;-60
2022/02/07 11:50:20;;;;;;;6.90;3.30;;;;;;;;;;143730;627;46010;-60
2022/02/07 11:52:49;;;;;;;8.07;4.43;;;;;;;;;;143729;583;46017;-61
2022/02/07 11:55:19;;;;;;;5.68;3.50;;;;;;;;;;143732;585;46023;-60
2022/02/07 11:58:10;;;;;;;6.05;3.55;;;;;;;;;;143728;586;46020;-61
2022/02/07 12:00:46;;;;;;;8.85;4.18;;;;;;;;;;143727;582;46011;-61
2022/02/07 12:03:15;;;;;;;8.10;3.67;;;;;;;;;;143730;593;46016;-61
2022/02/07 12:05:44;;;;;;;12.90;3.75;;;;;;;;;;143732;582;46012;-61
2022/02/07 12:08:36;;;;;;;6.40;3.67;;;;;;;;;;143730;623;46019;-61
2022/02/07 12:11:11;;;;;;;6.05;3.60;;;;;;;;;;143727;569;46922;-61
2022/02/07 12:13:41;;;;;;;6.10;3.50;;;;;;;;;;143727;593;46018;-61
2022/02/07 12:16:23;;;;;;;13.57;4.40;;;;;;;;;;143731;620;46012;-61
2022/02/07 12:19:19;;;;;;;6.72;3.60;;;;;;;;;;143731;580;46018;-61
2022/02/07 12:21:53;;;;;;;15.60;5.40;;;;;;;;;;143728;629;46022;-61
2022/02/07 12:24:40;;;;;;;8.68;4.60;;;;;;;;;;143728;601;46018;-60
2022/02/07 12:27:08;;;;;;;8.23;4.60;;;;;;;;;;143730;583;46014;-60
2022/02/07 12:29:59;;;;;;;13.50;5.10;;;;;;;;;;143730;598;46019;-61
2022/02/07 12:32:24;;;;;;;6.68;4.20;;;;;;;;;;143728;638;46022;-61
2022/02/07 12:34:52;;;;;;;10.88;4.18;;;;;;;;;;143731;585;46016;-60
2022/02/07 12:37:19;;;;;;;11.82;4.07;;;;;;;;;;143732;576;46022;-61
2022/02/07 12:39:48;;;;;;;8.48;3.87;;;;;;;;;;143731;611;46018;-61
2022/02/07 12:42:16;;;;;;;7.72;4.07;;;;;;;;;;143729;612;46022;-61
2022/02/07 12:44:43;;;;;;;9.85;4.10;;;;;;;;;;143729;596;46019;-61
2022/02/07 12:47:13;;;;;;;6.05;4.20;;;;;;;;;;143731;588;46023;-60
2022/02/07 12:49:47;;;;;;;9.77;4.22;;;;;;;;;;143730;585;46020;-60
2022/02/07 12:52:14;;;;;;;4.43;2.87;;;;;;;;;;143728;604;46023;-60
2022/02/07 12:54:41;;;;;;;6.85;3.65;;;;;;;;;;143728;659;46018;-60
2022/02/07 12:57:08;;;;;;;6.78;3.67;;;;;;;;;;143729;719;46014;-61
2022/02/07 12:59:35;;;;;;;12.57;3.70;;;;;;;;;;143731;586;46019;-60
2022/02/07 13:02:02;;;;;;;6.65;3.50;;;;;;;;;;143728;594;46023;-61
2022/02/07 13:04:29;;;;;;;7.40;3.83;;;;;;;;;;143730;605;46016;-61
2022/02/07 13:07:02;;;;;;;6.28;3.15;;;;;;;;;;143730;585;46014;-61
2022/02/07 13:09:42;;;;;;;7.20;3.33;;;;;;;;;;143732;605;46018;-61
2022/02/07 13:12:19;;;;;;;7.57;4.10;;;;;;;;;;143727;610;46921;-60
2022/02/07 13:14:51;;;;;;;6.05;3.62;;;;;;;;;;143731;606;46012;-61
2022/02/07 13:17:23;;;;;;;6.85;3.65;;;;;;;;;;143732;591;46023;-61
2022/02/07 13:19:52;;;;;;;5.00;3.37;;;;;;;;;;143730;611;46018;-61
2022/02/07 13:22:22;;;;;;;7.72;3.90;;;;;;;;;;143729;625;46022;-61
2022/02/07 13:24:50;;;;;;;7.00;3.60;;;;;;;;;;143731;763;46012;-60
2022/02/07 13:27:18;;;;;;;8.80;3.80;;;;;;;;;;143731;783;46014;-61
2022/02/07 13:29:48;;;;;;;6.43;3.70;;;;;;;;;;143731;617;46019;-61
2022/02/07 13:32:18;;;;;;;5.65;3.80;;;;;;;;;;143727;564;46022;-61
2022/02/07 13:34:47;;;;;;;8.70;3.75;;;;;;;;;;143731;575;46016;-60
2022/02/07 13:37:29;;;;;;;9.90;5.03;;;;;;;;;;143732;581;46014;-61
2022/02/07 13:40:21;;;;;;;44.42;19.73;;;;;;;;;;143728;577;47018;-61
2022/02/07 13:42:51;;;;;;;25.12;14.32;;;;;;;;;;143730;668;46012;-61
2022/02/07 13:45:24;;;;;;;23.83;14.23;;;;;;;;;;143728;583;46019;-60
2022/02/07 13:47:53;;;;;;;16.85;7.47;;;;;;;;;;143732;591;46022;-61
2022/02/07 13:50:28;;;;;;;12.23;6.62;;;;;;;;;;143730;571;46018;-60
2022/02/07 13:53:02;;;;;;;15.35;8.93;;;;;;;;;;143724;582;47010;-61
2022/02/07 13:55:34;;;;;;;13.32;7.28;;;;;;;;;;143730;593;46018;-61
2022/02/07 13:58:08;;;;;;;13.00;5.87;;;;;;;;;;143732;569;46012;-61
2022/02/07 14:00:54;;;;;;;;;;;;;;;;;;143734;979;46019;-60
2022/02/07 14:03:57;;;;;;;10.98;5.07;;;;;;;;;;143738;614;46022;-60
2022/02/07 14:06:26;;;;;;;11.43;4.95;;;;;;;;;;143727;565;46018;-60
2022/02/07 14:08:57;;;;;;;8.65;4.30;;;;;;;;;;143733;594;46012;-61
2022/02/07 14:11:29;;;;;;;9.77;5.10;;;;;;;;;;143728;564;46020;-60
2022/02/07 14:13:59;;;;;;;9.10;5.35;;;;;;;;;;143728;756;46023;-60
2022/02/07 14:16:26;;;;;;;10.60;4.60;;;;;;;;;;143729;574;46018;-61
2022/02/07 14:18:55;;;;;;;10.98;5.10;;;;;;;;;;143733;567;46012;-60
2022/02/07 14:21:24;;;;;;;9.02;5.28;;;;;;;;;;143729;626;46020;-60
2022/02/07 14:23:53;;;;;;;7.20;3.83;;;;;;;;;;143729;604;46023;-61
2022/02/07 14:26:22;;;;;;;11.23;4.15;;;;;;;;;;143728;564;46018;-60
2022/02/07 14:28:56;;;;;;;7.62;4.50;;;;;;;;;;143733;592;46022;-60
2022/02/07 14:31:23;;;;;;;;;;;;;;;;;;143734;977;46018;-60
2022/02/07 14:33:50;;;;;;;8.60;4.35;;;;;;;;;;143739;615;46022;-61
2022/02/07 14:36:17;;;;;;;8.93;4.18;;;;;;;;;;143728;600;46017;-60
2022/02/07 14:38:44;;;;;;;8.30;4.22;;;;;;;;;;143731;624;46023;-61
2022/02/07 14:41:11;;;;;;;8.15;4.60;;;;;;;;;;143730;726;46018;-61
2022/02/07 14:43:40;;;;;;;10.27;4.47;;;;;;;;;;143728;585;46023;-60
2022/02/07 14:46:09;;;;;;;18.50;8.77;;;;;;;;;;143731;583;46010;-60
2022/02/07 14:48:40;;;;;;;15.38;6.47;;;;;;;;;;143732;622;46022;-60
2022/02/07 14:51:09;;;;;;;12.82;7.05;;;;;;;;;;143731;578;46019;-61
2022/02/07 14:53:37;;;;;;;13.82;6.20;;;;;;;;;;143728;605;46020;-61
2022/02/07 14:56:06;;;;;;;15.63;5.07;;;;;;;;;;143730;617;46018;-60
2022/02/07 14:58:33;;;;;;;11.52;5.53;;;;;;;;;;143732;576;46020;-60
2022/02/07 15:01:00;;;;;;;11.98;5.62;;;;;;;;;;143731;598;46020;-61
2022/02/07 15:03:27;;;;;;;9.27;4.40;;;;;;;;;;143729;565;46020;-60
2022/02/07 15:05:55;;;;;;;10.30;4.43;;;;;;;;;;143730;600;46019;-60
2022/02/07 15:08:24;;;;;;;8.10;4.47;;;;;;;;;;143732;569;46014;-60
2022/02/07 15:10:51;;;;;;;12.10;4.43;;;;;;;;;;143728;620;46022;-61
2022/02/07 15:13:18;;;;;;;10.70;4.15;;;;;;;;;;143728;618;46020;-60
2022/02/07 15:15:45;;;;;;;10.95;5.07;;;;;;;;;;143730;641;46018;-60
2022/02/07 15:18:12;;;;;;;12.60;4.57;;;;;;;;;;143733;569;46014;-59
2022/02/07 15:20:41;;;;;;;11.40;4.40;;;;;;;;;;143730;654;46021;-60
2022/02/07 15:23:10;;;;;;;10.00;4.47;;;;;;;;;;143728;625;46021;-60
2022/02/07 15:25:39;;;;;;;8.38;4.05;;;;;;;;;;143729;569;46018;-60
2022/02/07 15:28:08;;;;;;;10.70;4.35;;;;;;;;;;143730;565;46020;-60
2022/02/07 15:30:41;;;;;;;12.93;5.70;;;;;;;;;;143729;647;46023;-60
2022/02/07 15:33:10;;;;;;;7.03;3.95;;;;;;;;;;143728;585;46020;-60
2022/02/07 15:35:37;;;;;;;8.38;4.45;;;;;;;;;;143730;580;46019;-60
2022/02/07 15:38:06;;;;;;;5.97;3.87;;;;;;;;;;143732;564;46021;-59
2022/02/07 15:40:33;;;;;;;10.35;4.32;;;;;;;;;;143728;622;47020;-60
2022/02/07 15:43:01;;;;;;;8.55;4.18;;;;;;;;;;143728;597;46020;-60
2022/02/07 15:45:28;;;;;;;6.85;4.12;;;;;;;;;;143730;570;46012;-60
2022/02/07 15:47:56;;;;;;;6.43;3.70;;;;;;;;;;143730;579;46014;-60
2022/02/07 15:50:24;;;;;;;7.90;3.53;;;;;;;;;;143730;630;46021;-60
2022/02/07 15:52:51;;;;;;;8.10;4.47;;;;;;;;;;143728;715;46021;-60
2022/02/07 15:55:18;;;;;;;10.45;3.87;;;;;;;;;;143728;559;46018;-60
2022/02/07 15:57:45;;;;;;;12.75;4.60;;;;;;;;;;143732;564;46020;-59
2022/02/07 16:00:15;;;;;;;6.03;3.60;;;;;;;;;;143730;621;46020;-60
2022/02/07 16:02:49;;;;;;;7.53;3.60;;;;;;;;;;143728;573;46020;-60
2022/02/07 16:05:20;;;;;;;9.15;3.50;;;;;;;;;;143728;569;46021;-60
2022/02/07 16:07:48;;;;;;;6.95;4.37;;;;;;;;;;143731;616;46021;-59
2022/02/07 16:10:16;;;;;;;7.30;4.15;;;;;;;;;;143726;591;47012;-60
2022/02/07 16:12:44;;;;;;;6.32;3.80;;;;;;;;;;143728;603;46020;-60
2022/02/07 16:15:15;;;;;;;8.85;3.75;;;;;;;;;;143730;588;46014;-60
2022/02/07 16:17:43;;;;;;;9.48;4.10;;;;;;;;;;143732;575;46020;-60
2022/02/07 16:20:10;;;;;;;11.50;5.87;;;;;;;;;;143731;601;47021;-60
2022/02/07 16:22:37;;;;;;;12.40;5.10;;;;;;;;;;143729;578;46021;-60
2022/02/07 16:25:04;;;;;;;10.68;4.93;;;;;;;;;;143730;569;46018;-59
2022/02/07 16:27:31;;;;;;;14.50;6.35;;;;;;;;;;143732;566;46014;-60
2022/02/07 16:29:58;;;;;;;6.95;4.62;;;;;;;;;;143731;602;46020;-60
2022/02/07 16:32:25;;;;;;;12.50;4.20;;;;;;;;;;143728;587;46012;-60
2022/02/07 16:34:52;;;;;;;7.35;3.97;;;;;;;;;;143730;579;46020;-60
2022/02/07 16:37:20;;;;;;;9.38;4.37;;;;;;;;;;143731;615;46014;-60
2022/02/07 16:39:47;;;;;;;7.90;4.18;;;;;;;;;;143730;577;46020;-59
2022/02/07 16:42:14;;;;;;;9.77;3.83;;;;;;;;;;143726;603;46020;-60
2022/02/07 16:44:49;;;;;;;8.55;4.32;;;;;;;;;;143727;567;46020;-61
2022/02/07 16:47:17;;;;;;;6.47;3.92;;;;;;;;;;143731;569;46020;-60